Time;durP1;ratioP1;P1;durP2;ratioP2;P2;SDS_P1;SDS_P2;PMS_P1;PMS_P2;Temp;Humidity;BMP_temperature;BMP_pressure;BME280_temperature;BME280_humidity;BME280_pressure;Samples;Min_cycle;Max_cycle;Signal;HPM_P1;HPM_P2
2023/04/13 00:00:55;;;;;;;;;;;6.20;99.90;;;;;;20765272;28;20524;-80
2023/04/13 00:10:56;;;;;;;2.50;0.90;;;6.20;99.90;;;;;;20764510;28;19920;-80
2023/04/13 00:20:58;;;;;;;2.30;0.98;;;6.00;99.90;;;;;;20789585;28;20042;-80
2023/04/13 00:31:00;;;;;;;2.83;0.90;;;6.00;99.90;;;;;;20764813;28;20034;-79
2023/04/13 00:41:01;;;;;;;2.53;0.90;;;5.90;99.90;;;;;;20763380;28;20163;-81
2023/04/13 00:51:02;;;;;;;;;;;5.90;99.90;;;;;;20761413;28;20037;-80
2023/04/13 01:01:03;;;;;;;1.57;0.80;;;5.70;99.90;;;;;;20759457;28;19916;-80
2023/04/13 01:11:11;;;;;;;2.35;0.80;;;5.70;99.90;;;;;;20758036;28;20132;-80
2023/04/13 01:21:14;;;;;;;2.25;0.70;;;5.70;99.90;;;;;;20759584;28;20457;-80
2023/04/13 01:31:18;;;;;;;3.85;1.80;;;5.60;99.90;;;;;;20769342;28;20457;-80
2023/04/13 01:41:20;;;;;;;1.90;0.80;;;5.60;99.90;;;;;;20766497;28;20385;-79
2023/04/13 01:51:30;;;;;;;2.53;0.80;;;5.60;99.90;;;;;;20768909;28;20034;-81
2023/04/13 02:01:32;;;;;;;4.13;0.90;;;5.50;99.90;;;;;;20755771;28;20393;-80
2023/04/13 02:11:34;;;;;;;;;;;5.50;99.90;;;;;;20781953;28;20060;-80
2023/04/13 02:21:37;;;;;;;7.22;0.90;;;5.40;99.90;;;;;;20766851;28;20372;-81
2023/04/13 02:31:42;;;;;;;;;;;5.40;99.90;;;;;;20802269;28;20025;-81
2023/04/13 02:41:43;;;;;;;4.38;1.05;;;5.40;99.90;;;;;;20849829;28;20359;-81
2023/04/13 02:51:51;;;;;;;2.70;0.80;;;5.40;99.90;;;;;;20755686;28;20041;-80
2023/04/13 03:01:58;;;;;;;2.85;0.63;;;5.50;99.90;;;;;;20780381;28;20034;-81
2023/04/13 03:12:01;;;;;;;5.45;0.90;;;5.50;99.90;;;;;;20781028;28;20037;-81
2023/04/13 03:22:02;;;;;;;5.63;0.88;;;5.50;99.90;;;;;;20780122;28;20030;-80
2023/04/13 03:32:05;;;;;;;2.63;1.13;;;5.50;99.90;;;;;;20787094;28;20096;-79
2023/04/13 03:42:08;;;;;;;3.95;1.00;;;5.30;99.90;;;;;;20774194;28;20076;-79
2023/04/13 03:52:11;;;;;;;10.80;1.02;;;5.30;99.90;;;;;;20770590;28;20034;-79
2023/04/13 04:02:17;;;;;;;8.65;1.17;;;5.30;99.90;;;;;;20770715;28;20045;-81
2023/04/13 04:12:19;;;;;;;4.07;1.27;;;5.30;99.90;;;;;;20792310;28;20040;-78
2023/04/13 04:22:20;;;;;;;;;;;5.30;99.90;;;;;;20855977;28;20033;-79
2023/04/13 04:32:22;;;;;;;7.35;1.02;;;5.30;99.90;;;;;;20808405;28;19967;-79
2023/04/13 04:42:24;;;;;;;9.02;1.13;;;5.30;99.90;;;;;;20768783;28;20524;-80
2023/04/13 04:52:26;;;;;;;9.48;1.80;;;5.30;99.90;;;;;;20795196;28;20026;-80
2023/04/13 05:02:28;;;;;;;6.00;1.20;;;5.20;99.90;;;;;;20791550;28;20030;-81
2023/04/13 05:12:29;;;;;;;8.07;1.55;;;5.20;99.90;;;;;;20780692;28;20064;-80
2023/04/13 05:22:31;;;;;;;8.13;1.17;;;5.20;99.90;;;;;;20776504;28;20038;-81
2023/04/13 05:32:37;;;;;;;5.18;1.40;;;5.20;99.90;;;;;;20765849;28;20070;-81
2023/04/13 05:42:40;;;;;;;;;;;5.30;99.90;;;;;;20768137;28;20043;-80
2023/04/13 05:52:41;;;;;;;25.15;8.55;;;5.40;99.90;;;;;;20764150;28;19914;-80
2023/04/13 06:02:42;;;;;;;7.93;2.28;;;5.50;99.90;;;;;;20764248;28;20103;-78
2023/04/13 06:12:47;;;;;;;5.45;2.05;;;5.60;99.90;;;;;;20751900;28;20040;-79
2023/04/13 06:22:48;;;;;;;15.10;1.60;;;5.40;99.90;;;;;;20758524;28;20040;-78
2023/04/13 06:32:50;;;;;;;5.13;1.40;;;5.40;99.90;;;;;;20756534;28;20033;-79
2023/04/13 06:42:55;;;;;;;8.63;1.30;;;5.70;99.90;;;;;;20763223;28;20115;-79
2023/04/13 06:53:04;;;;;;;9.13;1.67;;;6.10;99.90;;;;;;20758302;28;20274;-79
2023/04/13 07:03:05;;;;;;;;;;;6.10;99.90;;;;;;20759986;28;20117;-81
2023/04/13 07:13:06;;;;;;;8.30;1.55;;;6.30;99.90;;;;;;20767006;28;20391;-80
2023/04/13 07:23:09;;;;;;;5.97;1.30;;;6.60;99.90;;;;;;20759992;28;20090;-79
2023/04/13 07:33:11;;;;;;;5.97;1.13;;;6.90;99.90;;;;;;20761888;28;20057;-81
2023/04/13 07:43:12;;;;;;;8.18;1.13;;;7.20;99.90;;;;;;20777076;28;20468;-81
2023/04/13 07:53:15;;;;;;;10.23;1.60;;;7.20;99.90;;;;;;20773739;28;20030;-79
2023/04/13 08:03:17;;;;;;;9.38;1.52;;;7.20;99.90;;;;;;20767854;28;20036;-79
2023/04/13 08:13:22;;;;;;;8.05;1.02;;;7.10;99.90;;;;;;20763875;28;20084;-78
2023/04/13 08:23:26;;;;;;;9.55;1.33;;;7.40;99.90;;;;;;20765292;28;20519;-79
2023/04/13 08:33:27;;;;;;;7.60;1.30;;;7.60;99.90;;;;;;20764307;28;20026;-79
2023/04/13 08:43:28;;;;;;;14.05;1.73;;;8.30;99.90;;;;;;20769152;28;20141;-78
2023/04/13 08:53:29;;;;;;;;;;;9.10;99.90;;;;;;20754820;28;20397;-79
2023/04/13 09:03:36;;;;;;;10.25;1.80;;;8.50;99.90;;;;;;20769588;28;19909;-79
2023/04/13 09:13:37;;;;;;;12.75;2.00;;;9.00;99.90;;;;;;20761268;28;20034;-78
2023/04/13 09:23:38;;;;;;;10.87;1.43;;;8.50;99.90;;;;;;20754923;28;20156;-79
2023/04/13 09:33:46;;;;;;;8.83;1.90;;;8.80;99.90;;;;;;20761959;28;20121;-80
2023/04/13 09:43:47;;;;;;;6.72;1.25;;;8.90;99.90;;;;;;20768774;28;20123;-79
2023/04/13 09:53:48;;;;;;;15.57;1.23;;;9.10;99.90;;;;;;20756993;28;20037;-78
2023/04/13 10:03:50;;;;;;;10.52;1.67;;;8.70;99.90;;;;;;20768158;28;20034;-81
2023/04/13 10:13:57;;;;;;;16.25;2.58;;;9.70;99.90;;;;;;20759082;28;20630;-79
2023/04/13 10:23:58;;;;;;;8.57;1.45;;;9.90;99.90;;;;;;20778949;28;20495;-79
2023/04/13 10:33:59;;;;;;;11.73;1.17;;;9.60;99.90;;;;;;20760808;28;20045;-79
2023/04/13 10:44:09;;;;;;;7.50;1.60;;;10.20;99.90;;;;;;20762818;28;20029;-79
2023/04/13 10:54:12;;;;;;;4.00;1.20;;;10.60;99.90;;;;;;20760019;28;20077;-79
2023/04/13 11:04:14;;;;;;;8.75;1.65;;;10.00;99.90;;;;;;20761507;28;20041;-78
2023/04/13 11:14:24;;;;;;;10.10;1.98;;;8.50;99.90;;;;;;20770853;28;20038;-79
2023/04/13 11:24:32;;;;;;;3.70;1.15;;;8.10;99.90;;;;;;20783584;28;20034;-79
2023/04/13 11:34:33;;;;;;;6.68;1.27;;;11.50;99.90;;;;;;20796015;28;20034;-80
2023/04/13 11:44:38;;;;;;;5.53;1.10;;;11.40;99.90;;;;;;20780442;28;20452;-80
2023/04/13 11:54:39;;;;;;;5.65;2.17;;;12.60;99.90;;;;;;20779497;28;20029;-82
2023/04/13 12:04:40;;;;;;;5.10;1.27;;;12.60;99.90;;;;;;20789564;28;20026;-79
2023/04/13 12:14:41;;;;;;;5.13;0.70;;;10.60;99.90;;;;;;20779201;28;20037;-81
2023/04/13 12:24:42;;;;;;;2.63;0.80;;;9.70;99.90;;;;;;20771110;28;20041;-81
2023/04/13 12:34:43;;;;;;;3.77;0.73;;;9.20;99.90;;;;;;20782259;28;20034;-81
2023/04/13 12:44:44;;;;;;;;;;;10.40;99.90;;;;;;20775800;28;20030;-81
2023/04/13 12:54:45;;;;;;;6.77;1.50;;;11.20;99.90;;;;;;20791622;28;19918;-80
2023/04/13 13:04:46;;;;;;;2.47;0.77;;;10.50;99.90;;;;;;20797161;28;20364;-81
2023/04/13 13:14:46;;;;;;;3.00;1.00;;;9.40;99.90;;;;;;20786659;28;20034;-81
2023/04/13 13:24:47;;;;;;;5.93;1.40;;;9.50;99.90;;;;;;20794058;28;20057;-81
2023/04/13 13:34:48;;;;;;;15.87;1.60;;;9.00;99.90;;;;;;20772320;28;20034;-80
2023/04/13 13:44:49;;;;;;;8.43;1.30;;;7.90;99.90;;;;;;20774404;28;20272;-81
2023/04/13 13:54:50;;;;;;;13.03;1.50;;;8.90;99.90;;;;;;20764169;28;20080;-80
2023/04/13 14:04:51;;;;;;;6.93;1.63;;;8.80;99.90;;;;;;20774697;28;20038;-81
2023/04/13 14:14:51;;;;;;;4.77;1.37;;;9.00;99.90;;;;;;20782395;28;20068;-81
2023/04/13 14:24:53;;;;;;;9.00;1.43;;;8.90;99.90;;;;;;20825643;28;20030;-81
2023/04/13 14:34:58;;;;;;;9.85;1.95;;;9.40;99.90;;;;;;20813938;28;20519;-81
2023/04/13 14:44:59;;;;;;;4.80;1.50;;;10.10;99.90;;;;;;20799059;28;20025;-82
2023/04/13 14:55:00;;;;;;;10.17;1.70;;;9.50;99.90;;;;;;20804860;28;20517;-80
2023/04/13 15:05:02;;;;;;;4.53;1.08;;;8.80;99.90;;;;;;20796024;28;20040;-82
2023/04/13 15:15:03;;;;;;;4.13;1.50;;;7.80;99.90;;;;;;20786920;28;20053;-80
2023/04/13 15:25:04;;;;;;;;;;;7.40;99.90;;;;;;20789953;28;20034;-80
2023/04/13 15:35:05;;;;;;;5.93;1.30;;;7.40;99.90;;;;;;20790983;28;20059;-81
2023/04/13 15:45:08;;;;;;;5.40;1.20;;;7.50;99.90;;;;;;20837071;28;20069;-81
2023/04/13 15:55:09;;;;;;;23.45;10.68;;;7.00;99.90;;;;;;20866581;28;20154;-80
2023/04/13 16:05:10;;;;;;;7.22;2.55;;;6.70;99.90;;;;;;20807619;28;20590;-81
2023/04/13 16:15:11;;;;;;;;;;;6.90;99.90;;;;;;20779283;28;20589;-80
2023/04/13 16:25:14;;;;;;;7.30;2.00;;;6.90;99.90;;;;;;20781094;28;20301;-82
2023/04/13 16:35:15;;;;;;;5.80;1.33;;;7.30;99.90;;;;;;20802785;28;20030;-80
2023/04/13 16:45:15;;;;;;;6.35;1.33;;;7.10;99.90;;;;;;20775886;28;20114;-80
2023/04/13 16:55:16;;;;;;;6.57;3.17;;;6.90;99.90;;;;;;20768576;28;20037;-80
2023/04/13 17:05:17;;;;;;;8.73;3.37;;;7.00;99.90;;;;;;20780231;28;20265;-80
2023/04/13 17:15:19;;;;;;;6.00;2.92;;;7.00;99.90;;;;;;20777411;28;20029;-79
2023/04/13 17:25:20;;;;;;;6.28;2.03;;;6.70;99.90;;;;;;20768880;28;20037;-81
2023/04/13 17:35:20;;;;;;;;;;;6.50;99.90;;;;;;20811927;28;20034;-81
2023/04/13 17:45:21;;;;;;;5.30;1.70;;;6.30;99.90;;;;;;20831713;28;19963;-80
2023/04/13 17:55:22;;;;;;;9.95;1.88;;;6.00;99.90;;;;;;20784785;28;20324;-80
2023/04/13 18:05:24;;;;;;;;;;;5.80;99.90;;;;;;20751053;28;20632;-80
2023/04/13 18:15:25;;;;;;;7.67;2.20;;;5.70;99.90;;;;;;20764079;28;20285;-79
2023/04/13 18:25:26;;;;;;;;;;;5.60;99.90;;;;;;20788547;28;20038;-79
2023/04/13 18:35:27;;;;;;;5.27;2.00;;;5.60;99.90;;;;;;20782267;28;19914;-81
2023/04/13 18:45:27;;;;;;;;;;;5.60;99.90;;;;;;20775318;28;20054;-83
2023/04/13 18:55:28;;;;;;;8.82;3.08;;;5.50;99.90;;;;;;20786528;28;20662;-81
2023/04/13 19:05:30;;;;;;;;;;;5.60;99.90;;;;;;20797473;28;20038;-80
2023/04/13 19:15:31;;;;;;;11.53;2.73;;;5.60;99.90;;;;;;20738741;28;19914;-80
2023/04/13 19:25:32;;;;;;;;;;;5.60;99.90;;;;;;20759602;28;20041;-82
2023/04/13 19:35:33;;;;;;;4.77;1.70;;;5.70;99.90;;;;;;20767844;28;19959;-82
2023/04/13 19:45:34;;;;;;;5.88;2.50;;;5.80;99.90;;;;;;20780307;28;20034;-81
2023/04/13 19:55:35;;;;;;;;;;;5.80;99.90;;;;;;20790525;28;20036;-81
2023/04/13 20:05:37;;;;;;;7.28;1.95;;;5.70;99.90;;;;;;20799381;28;19917;-81
2023/04/13 20:15:38;;;;;;;5.30;1.83;;;5.80;99.90;;;;;;20754427;28;20030;-80
2023/04/13 20:25:39;;;;;;;7.45;2.88;;;5.70;99.90;;;;;;20762914;28;20026;-79
2023/04/13 20:35:40;;;;;;;2.95;1.40;;;5.60;99.90;;;;;;20761739;28;20034;-80
2023/04/13 20:45:44;;;;;;;;;;;5.40;99.90;;;;;;20766603;28;20088;-80
2023/04/13 20:55:47;;;;;;;5.15;1.20;;;5.20;99.90;;;;;;20754855;28;19914;-80
2023/04/13 21:05:47;;;;;;;4.80;1.42;;;5.00;99.90;;;;;;20766554;28;20096;-80
2023/04/13 21:15:48;;;;;;;;;;;4.90;99.90;;;;;;20763669;28;20026;-80
2023/04/13 21:25:49;;;;;;;3.40;1.50;;;4.90;99.90;;;;;;20762510;28;19910;-80
2023/04/13 21:35:50;;;;;;;;;;;4.90;99.90;;;;;;20761436;28;20065;-80
2023/04/13 21:45:53;;;;;;;3.30;1.60;;;4.80;99.90;;;;;;20760053;28;19909;-80
2023/04/13 21:55:54;;;;;;;4.60;1.42;;;4.70;99.90;;;;;;20749730;28;20485;-79
2023/04/13 22:05:57;;;;;;;;;;;4.60;99.90;;;;;;20754960;28;20104;-80
2023/04/13 22:15:58;;;;;;;3.13;1.25;;;4.60;99.90;;;;;;20750678;28;19920;-80
2023/04/13 22:26:00;;;;;;;;;;;4.70;99.90;;;;;;20781675;28;20053;-81
2023/04/13 22:36:05;;;;;;;3.58;1.83;;;4.40;99.90;;;;;;20771027;28;19944;-80
2023/04/13 22:46:06;;;;;;;4.47;1.85;;;4.20;99.90;;;;;;20769516;28;20128;-80
2023/04/13 22:56:07;;;;;;;4.38;1.73;;;4.10;99.90;;;;;;20788845;28;20041;-81
2023/04/13 23:06:08;;;;;;;;;;;4.00;99.90;;;;;;20748439;28;20124;-80
2023/04/13 23:16:08;;;;;;;5.00;2.10;;;4.00;99.90;;;;;;20758678;28;19936;-81
2023/04/13 23:26:09;;;;;;;3.05;1.90;;;3.90;99.90;;;;;;20776992;28;20034;-82
2023/04/13 23:36:10;;;;;;;5.63;2.88;;;3.70;99.90;;;;;;20764983;28;20030;-81
2023/04/13 23:46:11;;;;;;;;;;;3.80;99.90;;;;;;20770047;28;20396;-81
2023/04/13 23:56:12;;;;;;;4.70;3.00;;;3.70;99.90;;;;;;20781693;28;19955;-80
